createdAt,value
2017-05-12T00:00:23.648Z,52
2017-05-12T00:01:25.249Z,52.1
2017-05-12T00:02:27.202Z,52.2
2017-05-12T00:03:28.857Z,52.4
2017-05-12T00:04:30.502Z,52.3
2017-05-12T00:05:32.107Z,52
2017-05-12T00:06:33.725Z,52
2017-05-12T00:07:35.675Z,52.1
2017-05-12T00:08:37.643Z,52.2
2017-05-12T00:09:39.252Z,52.4
2017-05-12T00:10:40.862Z,52.3
2017-05-12T00:11:42.817Z,52.4
2017-05-12T00:12:44.426Z,52.4
2017-05-12T00:13:46.036Z,52.4
2017-05-12T00:14:47.653Z,52.4
2017-05-12T00:15:49.263Z,52.2
2017-05-12T00:16:50.876Z,52.3
2017-05-12T00:17:52.483Z,52.3
2017-05-12T00:18:54.095Z,52.2
2017-05-12T00:19:55.703Z,52.2
2017-05-12T00:20:57.655Z,52.2
2017-05-12T00:21:59.266Z,52.6
2017-05-12T00:23:00.882Z,52.3
2017-05-12T00:24:02.488Z,52.5
2017-05-12T00:25:04.099Z,52.4
2017-05-12T00:26:05.714Z,52.7
2017-05-12T00:27:07.320Z,52.7
2017-05-12T00:28:08.935Z,52.4
2017-05-12T00:29:10.545Z,52.8
2017-05-12T00:30:12.172Z,52.9
2017-05-12T00:31:13.782Z,52.9
2017-05-12T00:32:15.390Z,52.5
2017-05-12T00:33:17.001Z,52.8
2017-05-12T00:34:18.611Z,52.8
2017-05-12T00:35:20.220Z,52.9
2017-05-12T00:36:21.834Z,52.8
2017-05-12T00:37:23.487Z,52.9
2017-05-12T00:38:25.194Z,53
2017-05-12T00:39:26.805Z,53
2017-05-12T00:40:28.417Z,52.9
2017-05-12T00:41:30.363Z,53
2017-05-12T00:42:32.308Z,52.8
2017-05-12T00:43:33.912Z,53.1
2017-05-12T00:44:35.532Z,52.9
2017-05-12T00:45:37.503Z,53.1
2017-05-12T00:46:39.114Z,53.2
2017-05-12T00:47:41.064Z,52.9
2017-05-12T00:48:42.674Z,52.8
2017-05-12T00:49:44.279Z,53.3
2017-05-12T00:50:45.887Z,53.3
2017-05-12T00:51:47.498Z,53.2
2017-05-12T00:52:49.103Z,53.3
2017-05-12T00:53:50.720Z,53.3
2017-05-12T00:54:52.330Z,53.4
2017-05-12T00:55:53.953Z,53.5
2017-05-12T00:56:55.597Z,53.3
2017-05-12T00:57:57.207Z,53.5
2017-05-12T00:58:59.175Z,53.5
2017-05-12T01:00:00.787Z,53.6
2017-05-12T01:01:02.396Z,53.2
2017-05-12T01:02:04.017Z,53.5
2017-05-12T01:03:05.633Z,53.6
2017-05-12T01:04:07.280Z,53.3
2017-05-12T01:05:08.893Z,53.6
2017-05-12T01:06:10.512Z,53.7
2017-05-12T01:07:12.119Z,53.6
2017-05-12T01:08:14.069Z,53.7
2017-05-12T01:09:15.677Z,53.7
2017-05-12T01:10:17.645Z,53.7
2017-05-12T01:11:19.254Z,53.7
2017-05-12T01:12:20.871Z,53.7
2017-05-12T01:13:22.483Z,53.7
2017-05-12T01:14:24.100Z,53.7
2017-05-12T01:15:25.706Z,53.7
2017-05-12T01:16:27.318Z,53.8
2017-05-12T01:17:28.931Z,53.8
2017-05-12T01:18:30.541Z,53.9
2017-05-12T01:19:32.164Z,53.9
2017-05-12T01:20:34.115Z,53.9
2017-05-12T01:21:35.736Z,53.9
2017-05-12T01:22:37.348Z,53.9
2017-05-12T01:23:38.961Z,53.6
2017-05-12T01:24:40.566Z,53.6
2017-05-12T01:25:42.529Z,54
2017-05-12T01:26:44.146Z,54
2017-05-12T01:27:45.758Z,53.9
2017-05-12T01:28:47.708Z,54.1
2017-05-12T01:29:49.327Z,54.2
2017-05-12T01:30:50.949Z,54.2
2017-05-12T01:31:52.567Z,54.2
2017-05-12T01:32:54.576Z,54.1
2017-05-12T01:33:56.194Z,53.8
2017-05-12T01:34:57.803Z,53.8
2017-05-12T01:35:59.760Z,53.7
2017-05-12T01:37:01.373Z,53.7
2017-05-12T01:38:03.324Z,53.8
2017-05-12T01:39:04.939Z,53.8
2017-05-12T01:40:06.556Z,53.6
2017-05-12T01:41:08.174Z,53.7
2017-05-12T01:42:09.791Z,53.7
2017-05-12T01:43:11.411Z,53.6
2017-05-12T01:44:13.020Z,54
2017-05-12T01:45:14.977Z,53.9
2017-05-12T01:46:16.590Z,53.8
2017-05-12T01:47:18.205Z,53.9
2017-05-12T01:48:20.159Z,54.1
2017-05-12T01:49:21.772Z,54.1
2017-05-12T01:50:23.724Z,54.2
2017-05-12T01:51:25.339Z,54.1
2017-05-12T01:52:26.960Z,54.2
2017-05-12T01:53:28.574Z,54.1
2017-05-12T01:54:30.188Z,54.2
2017-05-12T01:55:31.800Z,54.2
2017-05-12T01:56:33.414Z,54.4
2017-05-12T01:57:35.030Z,54.4
2017-05-12T01:58:36.637Z,54.4
2017-05-12T01:59:38.256Z,54.5
2017-05-12T02:00:39.873Z,54.3
2017-05-12T02:01:41.489Z,54.5
2017-05-12T02:02:43.437Z,54.2
2017-05-12T02:03:45.063Z,54.4
2017-05-12T02:04:46.674Z,54.4
2017-05-12T02:05:48.288Z,54.2
2017-05-12T02:06:49.906Z,54.5
2017-05-12T02:07:51.530Z,54.5
2017-05-12T02:08:53.146Z,54.5
2017-05-12T02:09:54.753Z,54.6
2017-05-12T02:10:56.366Z,54.6
2017-05-12T02:11:57.979Z,54.6
2017-05-12T02:12:59.596Z,54.7
2017-05-12T02:14:01.206Z,54.7
2017-05-12T02:15:02.815Z,54.7
2017-05-12T02:16:04.436Z,54.7
2017-05-12T02:17:06.050Z,54.7
2017-05-12T02:18:07.670Z,54.6
2017-05-12T02:19:09.284Z,54.6
2017-05-12T02:20:10.902Z,54.3
2017-05-12T02:21:12.517Z,54.4
2017-05-12T02:22:14.129Z,54.7
2017-05-12T02:23:15.747Z,54.7
2017-05-12T02:24:17.362Z,54.7
2017-05-12T02:25:19.310Z,54.7
2017-05-12T02:26:20.935Z,54.6
2017-05-12T02:27:22.548Z,54.8
2017-05-12T02:28:24.167Z,54.8
2017-05-12T02:29:25.772Z,54.8
2017-05-12T02:30:27.387Z,54.8
2017-05-12T02:31:29.034Z,54.8
2017-05-12T02:32:30.655Z,54.9
2017-05-12T02:33:32.262Z,54.8
2017-05-12T02:34:34.280Z,54.8
2017-05-12T02:35:35.887Z,54.8
2017-05-12T02:36:37.499Z,54.9
2017-05-12T02:37:39.118Z,54.9
2017-05-12T02:38:41.074Z,54.9
2017-05-12T02:39:42.690Z,55
2017-05-12T02:40:44.309Z,55
2017-05-12T02:41:45.914Z,55
2017-05-12T02:42:47.570Z,55.1
2017-05-12T02:43:49.175Z,55.1
2017-05-12T02:44:50.797Z,55.1
2017-05-12T02:45:52.407Z,55.1
2017-05-12T02:46:54.026Z,55.1
2017-05-12T02:47:55.970Z,55.1
2017-05-12T02:48:57.579Z,55.2
2017-05-12T02:49:59.194Z,55.2
2017-05-12T02:51:01.144Z,55.2
2017-05-12T02:52:02.762Z,55.2
2017-05-12T02:53:04.376Z,55.4
2017-05-12T02:54:05.993Z,55.3
2017-05-12T02:55:07.612Z,55.3
2017-05-12T02:56:09.229Z,55.2
2017-05-12T02:57:10.845Z,55.2
2017-05-12T02:58:12.454Z,55.2
2017-05-12T02:59:14.077Z,55.3
2017-05-12T03:00:15.698Z,55.3
2017-05-12T03:01:17.315Z,55.4
2017-05-12T03:02:18.927Z,55.4
2017-05-12T03:03:20.536Z,55.4
2017-05-12T03:04:22.147Z,55.4
2017-05-12T03:05:23.778Z,55.4
2017-05-12T03:06:25.394Z,55.2
2017-05-12T03:07:27.009Z,55.4
2017-05-12T03:08:28.620Z,55.4
2017-05-12T03:09:30.237Z,55.5
2017-05-12T03:10:31.845Z,55.5
2017-05-12T03:11:33.456Z,55.5
2017-05-12T03:12:35.065Z,55.6
2017-05-12T03:13:37.017Z,55.6
2017-05-12T03:14:38.977Z,55.6
2017-05-12T03:15:40.582Z,55.6
2017-05-12T03:16:42.192Z,55.7
2017-05-12T03:17:43.811Z,55.7
2017-05-12T03:18:45.755Z,55.7
2017-05-12T03:19:47.710Z,55.7
2017-05-12T03:20:49.673Z,55.8
2017-05-12T03:21:51.286Z,55.8
2017-05-12T03:22:52.893Z,55.8
2017-05-12T03:23:54.514Z,55.9
2017-05-12T03:24:56.124Z,55.8
2017-05-12T03:25:57.745Z,55.7
2017-05-12T03:26:59.349Z,55.7
2017-05-12T03:28:00.955Z,55.7
2017-05-12T03:29:02.567Z,55.7
2017-05-12T03:30:04.190Z,55.8
2017-05-12T03:31:05.798Z,55.7
2017-05-12T03:32:07.415Z,55.7
2017-05-12T03:33:09.028Z,55.7
2017-05-12T03:34:10.643Z,55.7
2017-05-12T03:35:12.258Z,55.7
2017-05-12T03:36:13.875Z,55.8
2017-05-12T03:37:15.483Z,55.7
2017-05-12T03:38:17.090Z,55.8
2017-05-12T03:39:18.702Z,55.8
2017-05-12T03:40:20.358Z,55.9
2017-05-12T03:41:21.974Z,55.8
2017-05-12T03:42:23.915Z,55.9
2017-05-12T03:43:25.875Z,55.9
2017-05-12T03:44:27.829Z,55.9
2017-05-12T03:45:29.436Z,55.9
2017-05-12T03:46:31.053Z,55.9
2017-05-12T03:47:32.673Z,55.9
2017-05-12T03:48:34.276Z,56
2017-05-12T03:49:35.891Z,56
2017-05-12T03:50:37.513Z,56
2017-05-12T03:51:39.128Z,56
2017-05-12T03:52:40.744Z,56.1
2017-05-12T03:53:42.699Z,56.1
2017-05-12T03:54:44.664Z,56.2
2017-05-12T03:55:46.280Z,56.2
2017-05-12T03:56:48.238Z,56.3
2017-05-12T03:57:49.850Z,56.4
2017-05-12T03:58:51.468Z,56.3
2017-05-12T03:59:53.079Z,56.3
2017-05-12T04:00:55.032Z,56.3
2017-05-12T04:01:56.654Z,56.3
2017-05-12T04:02:58.269Z,56.2
2017-05-12T04:03:59.882Z,56.1
2017-05-12T04:05:01.496Z,56.1
2017-05-12T04:06:03.111Z,56.1
2017-05-12T04:07:04.721Z,56.2
2017-05-12T04:08:06.329Z,56.3
2017-05-12T04:09:08.287Z,56.3
2017-05-12T04:10:09.890Z,56.4
2017-05-12T04:11:11.510Z,56.2
2017-05-12T04:12:13.116Z,56.2
2017-05-12T04:13:14.734Z,56.2
2017-05-12T04:14:16.698Z,56.3
2017-05-12T04:15:18.312Z,56.3
2017-05-12T04:16:19.926Z,56.4
2017-05-12T04:17:21.537Z,56.3
2017-05-12T04:18:23.143Z,56.4
2017-05-12T04:19:24.759Z,56.4
2017-05-12T04:20:26.373Z,56.5
2017-05-12T04:21:27.988Z,56.5
2017-05-12T04:22:29.596Z,56.5
2017-05-12T04:23:31.561Z,56.5
2017-05-12T04:24:33.511Z,56.4
2017-05-12T04:25:35.129Z,56.5
2017-05-12T04:26:36.733Z,56.5
2017-05-12T04:27:38.342Z,56.4
2017-05-12T04:28:39.970Z,56.4
2017-05-12T04:29:41.927Z,56.4
2017-05-12T04:30:43.542Z,56.5
2017-05-12T04:31:45.153Z,56.4
2017-05-12T04:32:46.761Z,56.5
2017-05-12T04:33:48.367Z,56.5
2017-05-12T04:34:49.980Z,56.4
2017-05-12T04:35:51.636Z,56.4
2017-05-12T04:36:53.243Z,56.4
2017-05-12T04:37:54.858Z,56.4
2017-05-12T04:38:56.466Z,56.2
2017-05-12T04:39:58.192Z,56.3
2017-05-12T04:40:59.802Z,56.3
2017-05-12T04:42:01.414Z,56.4
2017-05-12T04:43:03.032Z,56.1
2017-05-12T04:44:04.641Z,56.4
2017-05-12T04:45:06.592Z,56.6
2017-05-12T04:46:08.213Z,56.5
2017-05-12T04:47:10.198Z,56.4
2017-05-12T04:48:11.818Z,56.4
2017-05-12T04:49:13.425Z,56.4
2017-05-12T04:50:15.735Z,56.6
2017-05-12T04:51:17.348Z,56.5
2017-05-12T04:52:18.962Z,56.5
2017-05-12T04:53:20.578Z,56.6
2017-05-12T04:54:22.188Z,56.5
2017-05-12T04:55:24.140Z,56.6
2017-05-12T04:56:25.757Z,56.6
2017-05-12T04:57:27.378Z,56.6
2017-05-12T04:58:29.207Z,56.7
2017-05-12T04:59:30.842Z,56.7
2017-05-12T05:00:32.464Z,56.6
2017-05-12T05:01:34.076Z,56.6
2017-05-12T05:02:35.699Z,56.6
2017-05-12T05:03:37.307Z,56.6
2017-05-12T05:04:38.935Z,56.7
2017-05-12T05:05:40.539Z,56.7
2017-05-12T05:06:42.148Z,56.6
2017-05-12T05:07:43.756Z,56.6
2017-05-12T05:08:45.375Z,56.5
2017-05-12T05:09:46.994Z,56.7
2017-05-12T05:10:48.956Z,56.6
2017-05-12T05:11:50.568Z,56.6
2017-05-12T05:12:52.180Z,56.5
2017-05-12T05:13:53.793Z,56.5
2017-05-12T05:14:55.414Z,56.6
2017-05-12T05:15:57.020Z,56.6
2017-05-12T05:16:58.630Z,56.6
2017-05-12T05:18:00.242Z,56.5
2017-05-12T05:19:01.857Z,56.5
2017-05-12T05:20:03.491Z,56.5
2017-05-12T05:21:05.194Z,56.6
2017-05-12T05:22:06.800Z,56.6
2017-05-12T05:23:08.415Z,56.5
2017-05-12T05:24:10.031Z,56.6
2017-05-12T05:25:11.646Z,56.6
2017-05-12T05:26:13.256Z,56.6
2017-05-12T05:27:14.866Z,56.6
2017-05-12T05:28:16.473Z,56.6
2017-05-12T05:29:18.103Z,56.6
2017-05-12T05:30:19.719Z,56.6
2017-05-12T05:31:21.341Z,56.6
2017-05-12T05:32:23.297Z,56.6
2017-05-12T05:33:25.246Z,56.7
2017-05-12T05:34:27.208Z,56.7
2017-05-12T05:35:28.827Z,56.6
2017-05-12T05:36:30.439Z,56.6
2017-05-12T05:37:32.047Z,56.6
2017-05-12T05:38:33.665Z,56.6
2017-05-12T05:39:35.315Z,56.5
2017-05-12T05:40:36.935Z,56.6
2017-05-12T05:41:38.562Z,56.6
2017-05-12T05:42:40.206Z,56.5
2017-05-12T05:43:41.837Z,56.5
2017-05-12T05:44:43.476Z,56.5
2017-05-12T05:45:45.099Z,56.5
2017-05-12T05:46:46.735Z,56.6
2017-05-12T05:47:48.366Z,56.6
2017-05-12T05:48:50.013Z,56.6
2017-05-12T05:49:51.659Z,56.6
2017-05-12T05:50:53.295Z,56.7
2017-05-12T05:51:54.929Z,56.7
2017-05-12T05:52:56.573Z,56.7
2017-05-12T05:53:58.219Z,56.8
2017-05-12T05:54:59.868Z,56.8
2017-05-12T05:56:01.501Z,56.8
2017-05-12T05:57:03.162Z,56.7
2017-05-12T05:58:04.809Z,56.8
2017-05-12T05:59:06.446Z,56.7
2017-05-12T06:00:08.072Z,56.8
2017-05-12T06:01:09.706Z,56.8
2017-05-12T06:02:11.379Z,56.8
2017-05-12T06:03:13.016Z,56.8
2017-05-12T06:04:14.654Z,56.9
2017-05-12T06:05:16.283Z,56.9
2017-05-12T06:06:17.916Z,56.9
2017-05-12T06:07:19.894Z,57
2017-05-12T06:08:21.533Z,56.9
2017-05-12T06:09:23.160Z,56.8
2017-05-12T06:10:24.802Z,56.9
2017-05-12T06:11:26.432Z,57
2017-05-12T06:12:28.060Z,56.8
2017-05-12T06:13:29.695Z,56.7
2017-05-12T06:14:31.333Z,56.7
2017-05-12T06:15:32.974Z,56.8
2017-05-12T06:16:34.605Z,56.9
2017-05-12T06:17:36.237Z,57
2017-05-12T06:18:37.880Z,57.1
2017-05-12T06:19:39.505Z,57
2017-05-12T06:20:41.141Z,57
2017-05-12T06:21:42.770Z,57.1
2017-05-12T06:22:44.457Z,57.1
2017-05-12T06:23:46.078Z,57
2017-05-12T06:24:47.715Z,56.7
2017-05-12T06:25:49.387Z,56.7
2017-05-12T06:26:51.047Z,56.9
2017-05-12T06:27:52.677Z,56.6
2017-05-12T06:28:54.642Z,56.8
2017-05-12T06:29:56.618Z,56.4
2017-05-12T06:30:58.251Z,56.4
2017-05-12T06:31:59.885Z,56.3
2017-05-12T06:33:01.514Z,56.4
2017-05-12T06:34:03.154Z,56.3
2017-05-12T06:35:05.122Z,56.2
2017-05-12T06:36:06.755Z,56.1
2017-05-12T06:37:08.384Z,56
2017-05-12T06:38:10.027Z,56.1
2017-05-12T06:39:11.668Z,56.1
2017-05-12T06:40:13.312Z,56.1
2017-05-12T06:41:15.288Z,56.1
2017-05-12T06:42:16.920Z,56.2
2017-05-12T06:43:18.577Z,56.2
2017-05-12T06:44:20.212Z,56.3
2017-05-12T06:45:22.211Z,56.2
2017-05-12T06:46:23.839Z,56.1
2017-05-12T06:47:25.472Z,56.1
2017-05-12T06:48:27.457Z,56.1
2017-05-12T06:49:29.091Z,56.1
2017-05-12T06:50:30.731Z,56
2017-05-12T06:51:32.358Z,56.2
2017-05-12T06:52:33.988Z,56.1
2017-05-12T06:53:36.321Z,56.1
2017-05-12T06:54:38.306Z,56
2017-05-12T06:55:39.945Z,56
2017-05-12T06:56:41.583Z,56
2017-05-12T06:57:43.558Z,56.2
2017-05-12T06:58:45.206Z,56.4
2017-05-12T06:59:46.850Z,56.4
2017-05-12T07:00:48.479Z,56.4
2017-05-12T07:01:50.112Z,56.3
2017-05-12T07:02:51.751Z,56.4
2017-05-12T07:03:53.389Z,56.4
2017-05-12T07:04:55.030Z,56.4
2017-05-12T07:05:56.665Z,56.4
2017-05-12T07:06:58.649Z,56.5
2017-05-12T07:08:00.285Z,56.4
2017-05-12T07:09:01.913Z,56.4
2017-05-12T07:10:03.561Z,56.5
2017-05-12T07:11:05.197Z,56.4
2017-05-12T07:12:06.831Z,56.3
2017-05-12T07:13:08.458Z,56.2
2017-05-12T07:14:10.101Z,56.1
2017-05-12T07:15:12.075Z,56.3
2017-05-12T07:16:13.714Z,56.2
2017-05-12T07:17:15.343Z,56.2
2017-05-12T07:18:16.974Z,56.1
2017-05-12T07:19:18.617Z,56.1
2017-05-12T07:20:20.586Z,56
2017-05-12T07:21:22.263Z,56.1
2017-05-12T07:22:23.893Z,56
2017-05-12T07:23:25.523Z,56
2017-05-12T07:24:27.160Z,56
2017-05-12T07:25:28.813Z,55.9
2017-05-12T07:26:30.796Z,56
2017-05-12T07:27:32.431Z,56
2017-05-12T07:28:34.069Z,56.2
2017-05-12T07:29:35.700Z,56.1
2017-05-12T07:30:37.335Z,56
2017-05-12T07:31:39.309Z,56
2017-05-12T07:32:40.941Z,55.9
2017-05-12T07:33:42.582Z,55.8
2017-05-12T07:34:44.233Z,55.7
2017-05-12T07:35:45.867Z,55.8
2017-05-12T07:36:47.503Z,55.9
2017-05-12T07:37:49.128Z,55.9
2017-05-12T07:38:50.771Z,55.8
2017-05-12T07:39:52.401Z,55.7
2017-05-12T07:40:54.035Z,55.7
2017-05-12T07:41:55.674Z,55.8
2017-05-12T07:42:57.651Z,55.8
2017-05-12T07:43:59.621Z,55.7
2017-05-12T07:45:01.253Z,55.8
2017-05-12T07:46:02.889Z,55.8
2017-05-12T07:47:04.516Z,55.9
2017-05-12T07:48:06.145Z,55.8
2017-05-12T07:49:07.785Z,55.8
2017-05-12T07:50:09.790Z,55.7
2017-05-12T07:51:11.439Z,55.5
2017-05-12T07:52:13.085Z,55.6
2017-05-12T07:53:15.065Z,55.5
2017-05-12T07:54:16.708Z,55.5
2017-05-12T07:55:18.344Z,55.4
2017-05-12T07:56:19.981Z,55.4
2017-05-12T07:57:21.969Z,55.3
2017-05-12T07:58:23.606Z,55.2
2017-05-12T07:59:25.575Z,55.2
2017-05-12T08:00:27.559Z,55.2
2017-05-12T08:01:29.190Z,55.4
2017-05-12T08:02:30.826Z,55.5
2017-05-12T08:03:32.818Z,55.6
2017-05-12T08:04:34.452Z,55.5
2017-05-12T08:05:36.095Z,55.6
2017-05-12T08:06:37.723Z,55.7
2017-05-12T08:07:39.352Z,55.7
2017-05-12T08:08:40.991Z,55.6
2017-05-12T08:09:42.991Z,55.5
2017-05-12T08:10:45.332Z,55.5
2017-05-12T08:11:47.019Z,55.3
2017-05-12T08:12:48.652Z,55.1
2017-05-12T08:13:50.282Z,55
2017-05-12T08:14:51.926Z,54.9
2017-05-12T08:15:53.919Z,54.9
2017-05-12T08:16:55.911Z,54.8
2017-05-12T08:17:57.545Z,54.8
2017-05-12T08:18:59.192Z,54.7
2017-05-12T08:20:01.164Z,54.8
2017-05-12T08:21:02.800Z,54.8
2017-05-12T08:22:04.453Z,54.8
2017-05-12T08:23:06.086Z,54.8
2017-05-12T08:24:08.043Z,54.8
2017-05-12T08:25:09.673Z,54.8
2017-05-12T08:26:11.313Z,54.7
2017-05-12T08:27:12.942Z,54.8
2017-05-12T08:28:14.588Z,54.8
2017-05-12T08:29:16.217Z,54.7
2017-05-12T08:30:17.866Z,54.8
2017-05-12T08:31:19.506Z,54.8
2017-05-12T08:32:21.146Z,54.7
2017-05-12T08:33:22.794Z,54.8
2017-05-12T08:34:25.118Z,54.7
2017-05-12T08:35:26.752Z,54.7
2017-05-12T08:36:28.389Z,54.5
2017-05-12T08:37:30.065Z,54.6
2017-05-12T08:38:31.705Z,54.7
2017-05-12T08:39:33.340Z,54.8
2017-05-12T08:40:34.986Z,54.8
2017-05-12T08:41:36.616Z,54.8
2017-05-12T08:42:38.599Z,54.9
2017-05-12T08:43:40.233Z,54.9
2017-05-12T08:44:41.882Z,54.9
2017-05-12T08:45:43.852Z,55
2017-05-12T08:46:45.489Z,54.9
2017-05-12T08:47:47.124Z,54.8
2017-05-12T08:48:48.756Z,54.7
2017-05-12T08:49:50.395Z,54.7
2017-05-12T08:50:52.378Z,54.7
2017-05-12T08:51:54.020Z,54.7
2017-05-12T08:52:55.656Z,54.7
2017-05-12T08:53:57.302Z,54.6
2017-05-12T08:54:58.939Z,54.7
2017-05-12T08:56:00.579Z,54.7
2017-05-12T08:57:02.218Z,54.7
2017-05-12T08:58:03.863Z,54.6
2017-05-12T08:59:05.498Z,54.7
2017-05-12T09:00:07.141Z,54.6
2017-05-12T09:01:08.794Z,54.7
2017-05-12T09:02:10.449Z,54.8
2017-05-12T09:03:12.080Z,54.8
2017-05-12T09:04:13.731Z,54.8
2017-05-12T09:05:15.371Z,54.8
2017-05-12T09:06:17.063Z,54.7
2017-05-12T09:07:18.696Z,54.7
2017-05-12T09:08:20.355Z,54.6
2017-05-12T09:09:21.983Z,54.6
2017-05-12T09:10:23.625Z,54.5
2017-05-12T09:11:25.257Z,54.5
2017-05-12T09:12:26.896Z,54.5
2017-05-12T09:13:28.544Z,54.4
2017-05-12T09:14:30.183Z,54.5
2017-05-12T09:15:31.821Z,54.4
2017-05-12T09:16:33.468Z,54.4
2017-05-12T09:17:35.102Z,54.5
2017-05-12T09:18:36.743Z,54.5
2017-05-12T09:19:38.397Z,54.4
2017-05-12T09:20:40.030Z,54.3
2017-05-12T09:21:41.674Z,54.4
2017-05-12T09:22:43.655Z,54.3
2017-05-12T09:23:45.301Z,54.5
2017-05-12T09:24:46.940Z,54.7
2017-05-12T09:25:48.579Z,54.7
2017-05-12T09:26:50.235Z,54.5
2017-05-12T09:27:51.877Z,54.6
2017-05-12T09:28:53.522Z,54.7
2017-05-12T09:29:55.164Z,54.7
2017-05-12T09:30:56.807Z,54.8
2017-05-12T09:31:58.446Z,54.7
2017-05-12T09:33:00.085Z,54.7
2017-05-12T09:34:02.073Z,54.5
2017-05-12T09:35:03.720Z,54.4
2017-05-12T09:36:05.726Z,54.3
2017-05-12T09:37:07.377Z,54.1
2017-05-12T09:38:09.015Z,54
2017-05-12T09:39:10.665Z,53.6
2017-05-12T09:40:12.313Z,53.2
2017-05-12T09:41:14.308Z,53.4
2017-05-12T09:42:15.959Z,52.8
2017-05-12T09:43:17.618Z,52.4
2017-05-12T09:44:19.264Z,52.2
2017-05-12T09:45:20.909Z,52.2
2017-05-12T09:46:22.900Z,52.2
2017-05-12T09:47:24.543Z,52.2
2017-05-12T09:48:26.195Z,52
2017-05-12T09:49:27.835Z,51.7
2017-05-12T09:50:29.484Z,51.5
2017-05-12T09:51:31.136Z,51.2
2017-05-12T09:52:32.781Z,50.8
2017-05-12T09:53:34.429Z,50.7
2017-05-12T09:54:36.075Z,50.4
2017-05-12T09:55:37.721Z,50.1
2017-05-12T09:56:39.370Z,50.1
2017-05-12T09:57:41.021Z,50.1
2017-05-12T09:58:43.009Z,50.1
2017-05-12T09:59:44.649Z,50
2017-05-12T10:00:46.302Z,50
2017-05-12T10:01:47.949Z,50.2
2017-05-12T10:02:49.598Z,50.3
2017-05-12T10:03:51.245Z,50.2
2017-05-12T10:04:52.898Z,50.1
2017-05-12T10:05:54.545Z,50
2017-05-12T10:06:56.191Z,50
2017-05-12T10:07:57.845Z,50.1
2017-05-12T10:08:59.502Z,50.2
2017-05-12T10:10:01.487Z,50.2
2017-05-12T10:11:03.146Z,50.2
2017-05-12T10:12:04.786Z,50.3
2017-05-12T10:13:06.773Z,50.3
2017-05-12T10:14:08.409Z,50.3
2017-05-12T10:15:10.071Z,50.3
2017-05-12T10:16:11.720Z,50.3
2017-05-12T10:17:13.366Z,50.3
2017-05-12T10:18:34.201Z,50.3
2017-05-12T10:19:35.825Z,50.2
2017-05-12T10:20:37.447Z,50.3
2017-05-12T10:21:39.083Z,50.1
2017-05-12T10:22:40.705Z,50.1
2017-05-12T10:23:42.673Z,50.3
2017-05-12T10:24:44.305Z,50.3
2017-05-12T10:25:45.939Z,50.1
2017-05-12T10:26:47.606Z,49.8
2017-05-12T10:27:49.228Z,49.5
2017-05-12T10:28:50.856Z,49.5
2017-05-12T10:29:52.490Z,49.4
2017-05-12T10:30:54.455Z,49.3
2017-05-12T10:31:56.088Z,49.2
2017-05-12T10:32:57.715Z,49.2
2017-05-12T10:33:59.347Z,49.1
2017-05-12T10:35:00.974Z,49.2
2017-05-12T10:36:02.969Z,49.4
2017-05-12T10:37:04.599Z,49.5
2017-05-12T10:38:06.226Z,49.5
2017-05-12T10:39:07.859Z,49.3
2017-05-12T10:40:09.830Z,49.2
2017-05-12T10:41:11.457Z,49.1
2017-05-12T10:42:13.126Z,49
2017-05-12T10:43:14.755Z,48.8
2017-05-12T10:44:16.391Z,48.8
2017-05-12T10:45:18.018Z,48.7
2017-05-12T10:46:19.635Z,48.7
2017-05-12T10:47:21.261Z,48.7
2017-05-12T10:48:22.888Z,48.8
2017-05-12T10:49:24.521Z,48.8
2017-05-12T10:50:26.139Z,48.6
2017-05-12T10:51:27.760Z,48.5
2017-05-12T10:52:29.388Z,48.4
2017-05-12T10:53:31.016Z,48.4
2017-05-12T10:54:32.646Z,48.4
2017-05-12T10:55:34.277Z,48.4
2017-05-12T10:56:35.897Z,48.4
2017-05-12T10:57:37.517Z,48.2
2017-05-12T10:58:39.136Z,48.1
2017-05-12T10:59:40.764Z,48.1
2017-05-12T11:00:42.733Z,48.3
2017-05-12T11:01:44.355Z,48.4
2017-05-12T11:02:45.984Z,48.5
2017-05-12T11:03:47.948Z,48.4
2017-05-12T11:04:49.578Z,48.5
2017-05-12T11:05:51.204Z,48.4
2017-05-12T11:06:52.824Z,48.6
2017-05-12T11:07:54.451Z,48.5
2017-05-12T11:08:56.076Z,48.5
2017-05-12T11:09:58.052Z,48.4
2017-05-12T11:10:59.675Z,48.2
2017-05-12T11:12:01.321Z,48.2
2017-05-12T11:13:02.955Z,48.1
2017-05-12T11:14:04.584Z,48
2017-05-12T11:15:06.225Z,48
2017-05-12T11:16:07.845Z,48.1
2017-05-12T11:17:09.842Z,48
2017-05-12T11:18:11.504Z,48
2017-05-12T11:19:13.131Z,48.1
2017-05-12T11:20:14.759Z,48
2017-05-12T11:21:16.381Z,48
2017-05-12T11:22:18.004Z,48
2017-05-12T11:23:19.635Z,48
2017-05-12T11:24:21.262Z,48.1
2017-05-12T11:25:23.230Z,48.1
2017-05-12T11:26:24.862Z,48.1
2017-05-12T11:27:26.595Z,48.2
2017-05-12T11:28:28.372Z,48.1
2017-05-12T11:29:29.998Z,48
2017-05-12T11:30:31.637Z,48.2
2017-05-12T11:31:33.261Z,48.1
2017-05-12T11:32:34.942Z,48
2017-05-12T11:33:36.583Z,48
2017-05-12T11:34:38.214Z,47.9
2017-05-12T11:35:39.842Z,48
2017-05-12T11:36:41.582Z,48
2017-05-12T11:37:43.397Z,48
2017-05-12T11:38:45.193Z,47.8
2017-05-12T11:39:46.818Z,47.7
2017-05-12T11:40:48.449Z,47.7
2017-05-12T11:41:50.074Z,47.7
2017-05-12T11:42:51.697Z,47.7
2017-05-12T11:43:53.317Z,47.8
2017-05-12T11:44:54.960Z,47.8
2017-05-12T11:45:56.672Z,47.8
2017-05-12T11:46:58.308Z,47.7
2017-05-12T11:47:59.930Z,47.9
2017-05-12T11:49:01.567Z,47.6
2017-05-12T11:50:03.204Z,47.6
2017-05-12T11:51:04.993Z,47.4
2017-05-12T11:52:07.004Z,47.4
2017-05-12T11:53:08.635Z,47.4
2017-05-12T11:54:10.274Z,47.3
2017-05-12T11:55:11.915Z,47.3
2017-05-12T11:56:13.536Z,47.3
2017-05-12T11:57:15.164Z,47.2
2017-05-12T11:58:16.795Z,47
2017-05-12T11:59:18.422Z,47
2017-05-12T12:00:20.046Z,46.8
2017-05-12T12:01:21.670Z,46.8
2017-05-12T12:02:23.345Z,46.6
2017-05-12T12:03:24.982Z,46.4
2017-05-12T12:04:26.951Z,46
2017-05-12T12:05:28.579Z,45.8
2017-05-12T12:06:30.236Z,45.6
2017-05-12T12:07:32.031Z,45.3
2017-05-12T12:08:33.880Z,45.1
2017-05-12T12:09:35.615Z,44.8
2017-05-12T12:10:37.578Z,44.6
2017-05-12T12:11:39.207Z,44.6
2017-05-12T12:12:40.838Z,44.5
2017-05-12T12:13:42.810Z,44.4
2017-05-12T12:14:44.777Z,44.2
2017-05-12T12:15:46.412Z,44
2017-05-12T12:16:48.046Z,44
2017-05-12T12:17:49.675Z,43.8
2017-05-12T12:18:51.308Z,43.4
2017-05-12T12:19:52.945Z,43.3
2017-05-12T12:20:54.581Z,43.4
2017-05-12T12:21:56.246Z,43.2
2017-05-12T12:22:57.879Z,43.2
2017-05-12T12:23:59.507Z,43.2
2017-05-12T12:25:01.480Z,43.2
2017-05-12T12:26:03.112Z,43.1
2017-05-12T12:27:04.816Z,43.1
2017-05-12T12:28:06.642Z,42.7
2017-05-12T12:29:08.342Z,42.7
2017-05-12T12:30:10.055Z,42.8
2017-05-12T12:31:11.831Z,42.7
2017-05-12T12:32:13.499Z,42.4
2017-05-12T12:33:15.561Z,42.4
2017-05-12T12:34:17.241Z,42.1
2017-05-12T12:35:18.873Z,42
2017-05-12T12:36:20.624Z,42
2017-05-12T12:37:22.272Z,41.9
2017-05-12T12:38:23.909Z,41.8
2017-05-12T12:39:25.534Z,41.7
2017-05-12T12:40:27.173Z,41.6
2017-05-12T12:41:28.867Z,41.6
2017-05-12T12:42:30.502Z,41.5
2017-05-12T12:43:32.277Z,41.2
2017-05-12T12:44:34.793Z,41.2
2017-05-12T12:45:36.425Z,41.1
2017-05-12T12:46:39.487Z,41
2017-05-12T12:47:44.205Z,41.1
2017-05-12T12:48:46.424Z,41.1
2017-05-12T12:49:48.056Z,41.1
2017-05-12T12:50:49.706Z,40.9
2017-05-12T12:51:51.348Z,40.7
2017-05-12T12:52:52.981Z,40.7
2017-05-12T12:53:54.625Z,40.4
2017-05-12T12:54:56.610Z,40.1
2017-05-12T12:55:58.243Z,40
2017-05-12T12:56:59.877Z,40.3
2017-05-12T12:58:01.514Z,40.3
2017-05-12T12:59:03.487Z,40.4
2017-05-12T13:00:05.122Z,40.4
2017-05-12T13:01:06.762Z,40.4
2017-05-12T13:02:08.781Z,40.3
2017-05-12T13:03:10.437Z,40.3
2017-05-12T13:04:12.160Z,40.4
2017-05-12T13:05:13.792Z,40.3
2017-05-12T13:06:15.435Z,40.4
2017-05-12T13:07:17.072Z,40.2
2017-05-12T13:08:18.700Z,40.2
2017-05-12T13:09:20.335Z,40
2017-05-12T13:10:21.999Z,40
2017-05-12T13:11:23.635Z,39.8
2017-05-12T13:12:25.269Z,39.8
2017-05-12T13:13:26.901Z,39.7
2017-05-12T13:14:28.938Z,39.4
2017-05-12T13:15:30.586Z,39.4
2017-05-12T13:16:32.225Z,39.2
2017-05-12T13:17:33.860Z,39.2
2017-05-12T13:18:35.502Z,39.2
2017-05-12T13:19:37.149Z,39.1
2017-05-12T13:20:38.784Z,38.8
2017-05-12T13:21:40.428Z,38.7
2017-05-12T13:22:42.078Z,38.5
2017-05-12T13:23:44.385Z,38.4
2017-05-12T13:24:46.027Z,38.4
2017-05-12T13:25:47.678Z,38.4
2017-05-12T13:26:49.318Z,38.4
2017-05-12T13:27:50.949Z,38.4
2017-05-12T13:28:52.931Z,38.3
2017-05-12T13:29:54.561Z,38.1
2017-05-12T13:30:56.195Z,38.1
2017-05-12T13:31:57.832Z,38.1
2017-05-12T13:32:59.813Z,38.1
2017-05-12T13:34:01.581Z,38.1
2017-05-12T13:35:03.557Z,38
2017-05-12T13:36:05.197Z,37.9
2017-05-12T13:37:06.839Z,37.8
2017-05-12T13:38:08.481Z,37.8
2017-05-12T13:39:10.129Z,37.7
2017-05-12T13:40:12.102Z,37.8
2017-05-12T13:41:13.742Z,37.6
2017-05-12T13:42:15.384Z,37.7
2017-05-12T13:43:17.020Z,37.8
2017-05-12T13:44:18.657Z,37.7
2017-05-12T13:45:20.291Z,37.6
2017-05-12T13:46:22.285Z,37.5